Time;durP1;ratioP1;P1;durP2;ratioP2;P2;SDS_P1;SDS_P2;PMS_P1;PMS_P2;Temp;Humidity;BMP_temperature;BMP_pressure;BME280_temperature;BME280_humidity;BME280_pressure;Samples;Min_cycle;Max_cycle;Signal;HPM_P1;HPM_P2
2023/02/13 00:01:48;;;;;;;;;91.00;63.67;;;;;-1.01;97.61;101708.84;6315713;20;3659647;-47
2023/02/13 00:04:17;;;;;;;;;80.67;62.67;;;;;-0.98;97.22;101708.88;6313538;20;2874316;-45
2023/02/13 00:06:47;;;;;;;;;90.00;65.67;;;;;-1.14;97.22;101708.59;6313229;20;3635033;-45
2023/02/13 00:09:16;;;;;;;;;87.00;66.00;;;;;-0.93;97.15;101716.00;6313297;20;3640877;-48
2023/02/13 00:11:46;;;;;;;;;83.33;61.33;;;;;-1.02;97.48;101712.34;6312780;20;3647216;-45
2023/02/13 00:14:16;;;;;;;;;85.67;62.33;;;;;-1.07;97.48;101716.63;6310623;20;3662830;-45
2023/02/13 00:16:45;;;;;;;;;89.33;66.67;;;;;-1.21;97.87;101717.28;6311389;20;3656531;-47
2023/02/13 00:19:15;;;;;;;;;87.67;69.67;;;;;-1.15;98.46;101722.66;6313904;20;2882610;-47
2023/02/13 00:21:45;;;;;;;;;91.00;69.00;;;;;-1.15;97.60;101722.66;6314601;20;2895403;-49
2023/02/13 00:24:15;;;;;;;;;87.67;61.67;;;;;-1.31;98.33;101720.56;6308452;20;3667381;-48
2023/02/13 00:26:44;;;;;;;;;77.33;58.33;;;;;-1.15;98.15;101712.09;6311451;20;2873241;-46
2023/02/13 00:29:14;;;;;;;;;81.33;61.33;;;;;-1.17;98.21;101719.09;6319013;20;2896364;-47
2023/02/13 00:31:43;;;;;;;;;69.50;57.00;;;;;-1.22;98.12;101720.75;6315514;20;2868018;-46
2023/02/13 00:34:13;;;;;;;;;74.33;55.33;;;;;-1.43;98.51;101707.16;6285276;20;2894125;-46
2023/02/13 00:36:42;;;;;;;;;79.33;57.00;;;;;-1.57;99.33;101720.06;6318801;20;2895160;-48
2023/02/13 00:39:12;;;;;;;;;78.50;57.00;;;;;-1.52;99.30;101721.03;6317969;20;2891008;-46
2023/02/13 00:41:41;;;;;;;;;74.00;56.67;;;;;-1.50;98.99;101723.69;6282634;20;2883670;-45
2023/02/13 00:44:11;;;;;;;;;84.67;62.33;;;;;-1.60;99.05;101720.00;6319875;20;3652339;-47
2023/02/13 00:46:40;;;;;;;;;86.67;63.33;;;;;-1.74;99.65;101709.13;6318736;20;3651679;-45
2023/02/13 00:49:10;;;;;;;;;79.00;59.00;;;;;-1.64;99.61;101699.69;6317324;20;2900411;-48
2023/02/13 00:51:40;;;;;;;;;87.00;67.00;;;;;-1.77;100.00;101699.44;6318622;20;2894073;-48
2023/02/13 00:54:09;;;;;;;;;103.00;73.00;;;;;-1.84;100.00;101696.66;6317640;20;3660676;-45
2023/02/13 00:56:39;;;;;;;;;104.67;81.67;;;;;-1.80;100.00;101690.59;6311218;20;3694037;-45
2023/02/13 00:59:08;;;;;;;;;108.00;79.00;;;;;-1.81;100.00;101687.06;6288800;20;3675249;-45
2023/02/13 01:01:38;;;;;;;;;98.67;74.33;;;;;-1.80;100.00;101687.97;6315181;20;3651507;-45
2023/02/13 01:04:08;;;;;;;;;98.67;74.33;;;;;-1.81;100.00;101680.94;6317027;20;3648189;-45
2023/02/13 01:06:37;;;;;;;;;98.67;71.67;;;;;-1.43;100.00;101686.97;6316857;20;3656601;-46
2023/02/13 01:09:07;;;;;;;;;100.67;72.33;;;;;-1.83;100.00;101683.50;6313785;20;3672165;-47
2023/02/13 01:11:36;;;;;;;;;82.50;62.00;;;;;-1.96;100.00;101688.50;6276693;20;2879480;-46
2023/02/13 01:14:05;;;;;;;;;80.33;64.00;;;;;-1.68;100.00;101684.72;6282019;20;2878508;-45
2023/02/13 01:16:35;;;;;;;;;87.67;66.67;;;;;-1.88;100.00;101690.44;6316531;20;3654467;-46
2023/02/13 01:19:04;;;;;;;;;89.33;65.33;;;;;-2.00;99.78;101688.44;6316983;20;3648381;-46
2023/02/13 01:21:34;;;;;;;;;87.67;65.00;;;;;-1.98;98.94;101689.31;6316126;20;2901488;-45
2023/02/13 01:24:06;;;;;;;;;79.50;59.00;;;;;-2.27;98.86;101695.69;6312709;20;2500267;-47
2023/02/13 01:26:33;;;;;;;;;72.00;56.00;;;;;-2.25;99.09;101691.34;6280052;20;2500441;-47
2023/02/13 01:29:01;;;;;;;;;75.00;59.00;;;;;-2.24;98.92;101695.75;6283513;20;2500309;-47
2023/02/13 01:31:31;;;;;;;;;79.67;59.00;;;;;-2.54;99.42;101688.94;6287083;20;3640962;-48
2023/02/13 01:34:00;;;;;;;;;73.50;55.50;;;;;-2.43;99.38;101689.19;6316234;20;2866955;-46
2023/02/13 01:36:28;;;;;;;;;72.00;55.00;;;;;-2.60;99.40;101696.69;6280583;20;2497182;-47
2023/02/13 01:38:59;;;;;;;;;85.33;56.67;;;;;-2.67;100.00;101700.00;6283306;20;2895154;-46
2023/02/13 01:41:27;;;;;;;;;71.00;52.50;;;;;-2.57;100.00;101702.00;6311409;20;2500474;-49
2023/02/13 01:44:00;;;;;;;;;87.67;63.00;;;;;-2.61;100.00;101694.88;6285946;20;2907702;-47
2023/02/13 01:46:41;;;;;;;;;85.33;60.33;;;;;-2.59;100.00;101698.44;6314206;20;2904632;-47
2023/02/13 01:49:23;;;;;;;;;75.50;56.50;;;;;-2.50;100.00;101703.94;6310829;20;2500288;-46
2023/02/13 01:51:55;;;;;;;;;89.67;66.00;;;;;-2.34;100.00;101699.00;6281233;20;2895180;-48
2023/02/13 01:54:30;;;;;;;;;111.33;80.67;;;;;-2.45;100.00;101699.69;6312575;20;3694120;-46
2023/02/13 01:57:13;;;;;;;;;80.67;60.33;;;;;-2.51;99.80;101696.88;6281228;20;2881538;-49
2023/02/13 01:59:57;;;;;;;;;67.00;45.50;;;;;-2.51;100.00;101693.38;6313499;20;2865937;-47
2023/02/13 02:02:30;;;;;;;;;88.00;64.67;;;;;-2.69;100.00;101692.06;6283846;20;3652473;-45
2023/02/13 02:05:03;;;;;;;;;92.00;64.00;;;;;-2.51;100.00;101689.00;6316658;20;3615869;-48
2023/02/13 02:07:34;;;;;;;;;93.67;70.00;;;;;-2.66;100.00;101691.25;6315904;20;3658590;-46
2023/02/13 02:10:11;;;;;;;;;91.67;67.67;;;;;-2.51;100.00;101686.38;6315772;20;2910831;-46
2023/02/13 02:13:18;;;;;;;;;97.67;71.00;;;;;-2.38;100.00;101686.66;6314824;20;2893074;-46
2023/02/13 02:15:49;;;;;;;;;92.33;67.67;;;;;-2.58;100.00;101686.19;6316373;20;3655556;-46
2023/02/13 02:18:23;;;;;;;;;100.67;72.33;;;;;-2.55;100.00;101695.06;6315909;20;3673183;-46
2023/02/13 02:21:08;;;;;;;;;100.67;74.00;;;;;-2.39;100.00;101684.91;6315041;20;3669132;-45
2023/02/13 02:24:19;;;;;;;;;101.00;76.00;;;;;-2.56;100.00;101685.38;6316384;20;3664854;-45
2023/02/13 02:27:40;;;;;;;;;83.00;65.00;;;;;-2.44;100.00;101682.16;6312469;20;2500258;-46
2023/02/13 02:30:58;;;;;;;;;96.33;69.67;;;;;-2.61;100.00;101692.25;6281682;20;3661727;-45
2023/02/13 02:34:21;;;;;;;;;98.33;70.67;;;;;-2.75;100.00;101691.03;6314497;20;2902186;-46
2023/02/13 02:37:31;;;;;;;;;87.33;64.67;;;;;-2.79;100.00;101691.78;6316144;20;2906563;-47
2023/02/13 02:40:06;;;;;;;;;101.33;73.00;;;;;-2.88;100.00;101690.72;6313875;20;3672137;-47
2023/02/13 02:42:53;;;;;;;;;85.00;64.00;;;;;-2.97;100.00;101690.50;6310475;20;2500318;-46
2023/02/13 02:46:08;;;;;;;;;103.33;75.00;;;;;-3.04;100.00;101688.53;6281969;20;3673173;-46
2023/02/13 02:52:18;;;;;;;;;100.33;74.33;;;;;-3.07;100.00;101684.97;6280203;20;3662757;-47
2023/02/13 02:55:07;;;;;;;;;95.33;71.33;;;;;-3.00;100.00;101690.41;6313900;20;3644136;-47
2023/02/13 03:06:43;;;;;;;;;108.00;76.00;;;;;-3.16;100.00;101685.59;6312921;20;2872262;-50
2023/02/13 03:15:15;;;;;;;;;89.00;67.33;;;;;-3.00;100.00;101684.25;6310843;20;2906770;-47
2023/02/13 03:24:09;;;;;;;;;94.20;67.80;;;;;-3.16;100.00;101680.34;6277517;20;3646123;-48
2023/02/13 03:31:00;;;;;;;;;96.67;67.00;;;;;-3.29;100.00;101687.03;6310388;20;3659625;-45
2023/02/13 03:34:09;;;;;;;;;92.33;69.33;;;;;-3.32;100.00;101693.06;6312737;20;3654420;-48
2023/02/13 03:40:17;;;;;;;;;105.00;76.33;;;;;-3.44;100.00;101683.97;6312310;20;3673170;-47
2023/02/13 03:43:12;;;;;;;;;101.33;75.00;;;;;-3.24;100.00;101681.88;6308544;20;3671140;-46
2023/02/13 03:45:52;;;;;;;;;100.00;75.67;;;;;-3.31;100.00;101679.09;6280940;20;3670486;-47
2023/02/13 03:51:47;;;;;;;;;98.67;73.33;;;;;-3.46;100.00;101667.28;6309308;20;3668039;-45
2023/02/13 04:00:22;;;;;;;;;97.33;70.00;;;;;-3.67;100.00;101668.44;6310714;20;3662834;-46
2023/02/13 04:03:19;;;;;;;;;84.00;63.33;;;;;-3.86;100.00;101677.53;6309465;20;2896234;-47
2023/02/13 04:06:00;;;;;;;;;75.67;53.33;;;;;-3.98;100.00;101664.97;6311916;20;2884753;-46
2023/02/13 04:08:28;;;;;;;;;73.00;54.00;;;;;-3.90;100.00;101672.16;6305878;20;2498216;-46
2023/02/13 04:11:14;;;;;;;;;68.00;50.00;;;;;-3.86;100.00;101671.41;6274921;20;2486766;-46
2023/02/13 04:13:57;;;;;;;;;81.50;58.00;;;;;-3.70;99.78;101673.63;6279416;20;2889215;-48
2023/02/13 04:16:43;;;;;;;;;86.33;62.33;;;;;-3.62;99.11;101671.22;6282612;20;3652369;-47
2023/02/13 04:19:12;;;;;;;;;81.67;59.67;;;;;-3.78;100.00;101668.16;6309260;20;2894183;-44
2023/02/13 04:21:40;;;;;;;;;80.00;58.50;;;;;-4.06;100.00;101663.81;6300681;20;2503481;-47
2023/02/13 04:24:09;;;;;;;;;72.50;59.00;;;;;-3.99;100.00;101665.78;6277314;20;2495083;-45
2023/02/13 04:26:42;;;;;;;;;69.00;49.00;;;;;-3.76;100.00;101662.97;6283262;20;2881559;-46
2023/02/13 04:29:10;;;;;;;;;78.50;57.00;;;;;-3.75;100.00;101662.97;6277391;20;2877364;-47
2023/02/13 04:31:39;;;;;;;;;67.67;48.67;;;;;-3.84;100.00;101660.09;6277020;20;2879480;-46
2023/02/13 04:34:07;;;;;;;;;75.00;57.00;;;;;-3.80;100.00;101659.34;6309765;20;2498323;-46
2023/02/13 04:36:36;;;;;;;;;74.67;59.33;;;;;-3.91;100.00;101658.13;6282530;20;3613884;-45
2023/02/13 04:39:05;;;;;;;;;74.00;58.00;;;;;-3.83;100.00;101656.63;6279762;20;2868111;-46
2023/02/13 04:41:33;;;;;;;;;83.33;63.00;;;;;-3.84;100.00;101648.72;6278116;20;2893125;-46
2023/02/13 04:44:02;;;;;;;;;82.00;62.00;;;;;-3.72;100.00;101653.41;6306175;20;2891079;-48
2023/02/13 04:46:30;;;;;;;;;81.50;62.00;;;;;-3.69;100.00;101656.13;6277809;20;2500307;-45
2023/02/13 04:49:00;;;;;;;;;85.67;63.67;;;;;-3.82;100.00;101653.19;6281783;20;3650392;-47
2023/02/13 04:51:28;;;;;;;;;92.00;66.00;;;;;-3.80;100.00;101647.94;6309660;20;2500320;-45
2023/02/13 04:53:57;;;;;;;;;85.67;63.67;;;;;-3.80;100.00;101656.72;6282079;20;2894079;-47
2023/02/13 04:56:26;;;;;;;;;81.50;60.00;;;;;-3.60;100.00;101651.16;6310827;20;2889931;-46
2023/02/13 04:58:56;;;;;;;;;89.00;66.00;;;;;-3.79;100.00;101652.34;6274979;20;3659762;-46
2023/02/13 05:01:25;;;;;;;;;94.00;64.67;;;;;-4.18;100.00;101646.84;6308967;20;3683621;-48
2023/02/13 05:03:55;;;;;;;;;89.00;63.67;;;;;-4.24;100.00;101650.16;6312691;20;2905482;-48
2023/02/13 05:06:25;;;;;;;;;90.33;60.67;;;;;-3.92;100.00;101653.75;6313820;20;2905547;-46
2023/02/13 05:08:54;;;;;;;;;92.67;66.00;;;;;-3.97;100.00;101660.59;6311229;20;2901438;-47
2023/02/13 05:11:23;;;;;;;;;84.00;58.00;;;;;-4.33;100.00;101656.00;6309742;20;2760148;-46
2023/02/13 05:13:51;;;;;;;;;79.00;57.00;;;;;-4.25;100.00;101644.03;6309415;20;2502424;-49
2023/02/13 05:16:19;;;;;;;;;81.50;59.00;;;;;-4.17;100.00;101643.38;6283410;20;2875367;-47
2023/02/13 05:18:53;;;;;;;;;93.33;67.33;;;;;-4.21;100.00;101627.56;6285531;20;3659700;-45
2023/02/13 05:24:09;;;;;;;;;99.00;76.00;;;;;-4.15;100.00;101610.22;6310725;20;2502384;-46
2023/02/13 05:26:39;;;;;;;;;152.33;125.67;;;;;-3.77;100.00;101603.41;6286051;20;3722174;-46
2023/02/13 05:29:19;;;;;;;;;128.00;92.67;;;;;-3.63;100.00;101598.56;6283177;20;3707548;-46
2023/02/13 05:31:53;;;;;;;;;109.67;81.67;;;;;-3.67;100.00;101610.69;6284471;20;3674242;-45
2023/02/13 05:34:26;;;;;;;;;106.00;76.00;;;;;-3.97;100.00;101600.25;6313380;20;3675372;-47
2023/02/13 05:36:56;;;;;;;;;128.00;96.67;;;;;-3.87;100.00;101604.00;6314336;20;3682670;-46
2023/02/13 05:39:26;;;;;;;;;109.67;81.00;;;;;-3.91;100.00;101599.53;6285100;20;3674382;-45
2023/02/13 05:41:55;;;;;;;;;108.00;76.67;;;;;-3.91;100.00;101600.41;6313661;20;3681497;-45
2023/02/13 05:44:25;;;;;;;;;93.33;65.33;;;;;-4.21;100.00;101611.81;6282151;20;3657557;-47
2023/02/13 05:46:53;;;;;;;;;77.00;57.50;;;;;-4.43;100.00;101618.13;6309344;20;2505502;-46
2023/02/13 05:49:21;;;;;;;;;51.50;42.50;;;;;-4.81;100.00;101624.81;6281048;20;2502343;-48
2023/02/13 05:51:51;;;;;;;;;48.00;38.00;;;;;-4.66;100.00;101643.66;6284528;20;2866961;-45
2023/02/13 05:54:20;;;;;;;;;52.00;36.50;;;;;-5.12;99.62;101647.38;6286621;20;2873209;-48
2023/02/13 05:56:48;;;;;;;;;56.50;40.50;;;;;-4.99;99.74;101646.06;6282495;20;2875293;-45
2023/02/13 05:59:16;;;;;;;;;65.00;43.00;;;;;-5.00;100.00;101651.22;6282552;20;2502387;-49
2023/02/13 06:01:46;;;;;;;;;95.33;67.00;;;;;-4.71;100.00;101647.84;6285880;20;3661851;-44
2023/02/13 06:04:16;;;;;;;;;107.33;74.33;;;;;-4.70;100.00;101652.22;6316952;20;3680524;-45
2023/02/13 06:06:45;;;;;;;;;95.67;67.00;;;;;-4.72;100.00;101656.53;6314300;20;3662836;-45
2023/02/13 06:09:14;;;;;;;;;71.67;38.67;;;;;-4.16;100.00;101653.00;6315785;20;3593052;-47
2023/02/13 06:11:43;;;;;;;;;97.60;68.20;;;;;-4.09;98.90;101647.09;6282491;20;3652356;-45
2023/02/13 06:14:13;;;;;;;;;100.67;74.33;;;;;-4.31;99.60;101651.72;6284787;20;4439894;-45
2023/02/13 06:16:43;;;;;;;;;99.67;71.33;;;;;-4.23;100.00;101655.47;6316070;20;3672204;-46
2023/02/13 06:19:12;;;;;;;;;94.67;72.00;;;;;-4.02;100.00;101662.19;6316849;20;2902454;-45
2023/02/13 06:21:42;;;;;;;;;98.67;73.67;;;;;-3.79;100.00;101661.13;6317055;20;3669011;-45
2023/02/13 06:24:11;;;;;;;;;115.33;91.00;;;;;-3.40;98.64;101664.81;6316172;20;3693003;-47
2023/02/13 06:26:41;;;;;;;;;113.33;86.00;;;;;-3.48;98.07;101664.59;6294065;20;3681626;-45
2023/02/13 06:29:12;;;;;;;;;245.25;168.75;;;;;-2.69;97.97;101668.41;6284155;20;3729528;-46
2023/02/13 06:31:42;;;;;;;;;206.00;160.00;;;;;-0.85;91.31;101673.97;6282693;20;3727422;-46
2023/02/13 06:34:13;;;;;;;;;160.25;125.25;;;;;0.84;83.68;101693.06;6280728;20;3730540;-46
2023/02/13 06:36:42;;;;;;;;;112.33;90.00;;;;;0.73;79.92;101693.78;6279572;20;3685646;-46
2023/02/13 06:39:12;;;;;;;;;103.00;78.67;;;;;0.11;82.99;101686.88;6284085;20;3683727;-45
2023/02/13 06:41:42;;;;;;;;;86.67;67.00;;;;;0.98;80.20;101695.84;6282202;20;2891121;-45
2023/02/13 06:44:11;;;;;;;;;90.33;66.00;;;;;0.20;80.86;101687.88;6311839;20;3656530;-45
2023/02/13 06:46:41;;;;;;;;;93.33;68.00;;;;;0.93;80.45;101686.09;6316959;20;3640006;-47
2023/02/13 06:49:11;;;;;;;;;89.33;63.00;;;;;1.17;78.52;101690.72;6312983;20;3667947;-45
2023/02/13 06:51:41;;;;;;;;;96.00;69.33;;;;;0.55;78.53;101690.06;6314548;20;3671095;-46
2023/02/13 06:54:10;;;;;;;;;102.00;77.00;;;;;0.57;80.48;101701.53;6280421;20;3691946;-50
2023/02/13 06:56:40;;;;;;;;;103.67;89.33;;;;;0.44;79.70;101707.53;6278057;20;3667958;-45
2023/02/13 06:59:09;;;;;;;;;94.67;69.00;;;;;0.90;77.92;101708.09;6280861;20;3671073;-46
2023/02/13 07:01:39;;;;;;;;;72.67;58.67;;;;;1.53;73.46;101704.28;6313885;20;2879566;-48
2023/02/13 07:04:08;;;;;;;;;64.00;51.00;;;;;2.71;69.11;101695.19;6314961;20;2879488;-49
2023/02/13 07:06:36;;;;;;;;;67.00;53.00;;;;;3.53;64.82;101707.72;6283289;20;2880532;-47
2023/02/13 07:09:06;;;;;;;;;76.00;53.67;;;;;5.45;59.54;101720.25;6283759;20;2898417;-48
2023/02/13 07:11:34;;;;;;;;;60.50;49.00;;;;;5.63;58.09;101721.88;6311013;20;2500272;-45
2023/02/13 07:14:06;;;;;;;;;70.67;53.33;;;;;4.79;59.18;101734.88;6284627;20;2886005;-48
2023/02/13 07:16:35;;;;;;;;;65.67;52.33;;;;;5.59;59.76;101733.47;6312227;20;2875347;-46
2023/02/13 07:19:05;;;;;;;;;84.33;62.00;;;;;5.60;57.99;101735.25;6313531;20;3643081;-48
2023/02/13 07:21:36;;;;;;;;;96.00;70.00;;;;;6.56;56.42;101730.75;6316219;20;3676286;-51
2023/02/13 07:24:07;;;;;;;;;130.00;97.25;;;;;6.20;57.09;101748.94;6281290;20;4472126;-47
2023/02/13 07:26:37;;;;;;;;;85.00;65.00;;;;;6.08;57.75;101749.03;6285431;20;3644043;-47
2023/02/13 07:29:06;;;;;;;;;69.33;55.33;;;;;6.34;57.37;101752.31;6315862;20;3628540;-48
2023/02/13 07:31:40;;;;;;;;;73.00;55.33;;;;;7.79;54.28;101753.00;6314984;20;3632551;-49
2023/02/13 07:34:10;;;;;;;;;69.33;52.67;;;;;7.24;55.00;101752.09;6316420;20;2882726;-50
2023/02/13 07:36:39;;;;;;;;;65.00;51.50;;;;;8.28;51.18;101749.47;6310439;20;2863840;-49
2023/02/13 07:39:19;;;;;;;;;77.33;60.67;;;;;7.93;52.65;101747.44;6283409;20;3620094;-46
2023/02/13 07:41:50;;;;;;;;;61.00;49.33;;;;;6.99;55.39;101743.56;6316016;20;2873315;-45
2023/02/13 07:44:19;;;;;;;;;64.00;48.00;;;;;5.19;61.12;101747.09;6313611;20;2877471;-47
2023/02/13 07:46:49;;;;;;;;;72.67;55.00;;;;;3.33;68.63;101733.38;6313168;20;3640994;-46
2023/02/13 07:49:17;;;;;;;;;61.00;50.00;;;;;3.35;72.93;101736.91;6313378;20;2859673;-46
2023/02/13 07:51:46;;;;;;;;;60.00;47.00;;;;;2.74;76.29;101725.28;6283083;20;2868085;-46
2023/02/13 07:54:16;;;;;;;;;77.33;59.33;;;;;2.06;79.08;101725.84;6282821;20;3638829;-47
2023/02/13 07:56:45;;;;;;;;;74.67;56.67;;;;;2.18;79.32;101728.53;6309293;20;3641906;-46
2023/02/13 07:59:15;;;;;;;;;70.67;54.33;;;;;2.07;82.07;101732.88;6313225;20;3634637;-48
2023/02/13 08:01:44;;;;;;;;;72.33;54.67;;;;;2.60;84.18;101729.63;6315025;20;2872168;-47
2023/02/13 08:04:14;;;;;;;;;67.33;49.67;;;;;2.30;83.01;101733.91;6314534;20;2877464;-46
2023/02/13 08:06:44;;;;;;;;;71.33;53.33;;;;;2.57;83.05;101734.91;6313114;20;3638820;-47
2023/02/13 08:12:09;;;;;;;;;58.00;45.00;;;;;2.97;82.22;101727.09;6283843;20;2861907;-47
2023/02/13 08:14:37;;;;;;;;;57.00;40.00;;;;;2.95;81.94;101729.75;6276929;20;2500311;-47
2023/02/13 08:17:08;;;;;;;;;160.00;119.33;;;;;3.00;82.13;101716.47;6280663;20;3705464;-49
2023/02/13 08:19:39;;;;;;;;;359.50;245.00;;;;;2.96;81.17;101714.72;6278320;20;3745264;-46
2023/02/13 08:22:10;;;;;;;;;241.75;161.00;;;;;3.03;80.34;101719.16;6313046;20;4503422;-46
2023/02/13 08:24:39;;;;;;;;;140.67;105.67;;;;;2.90;80.08;101712.94;6281016;20;3716026;-49
2023/02/13 08:27:14;;;;;;;;;83.00;57.67;;;;;3.35;78.27;101715.69;6281540;20;3651417;-48
2023/02/13 08:29:44;;;;;;;;;62.33;49.00;;;;;3.79;76.98;101714.75;6314958;20;3611671;-47
2023/02/13 08:32:13;;;;;;;;;84.00;61.33;;;;;3.44;77.95;101721.84;6312288;20;3646108;-46
2023/02/13 08:34:42;;;;;;;;;51.50;38.00;;;;;3.48;75.26;101720.97;6315435;20;3566384;-47
2023/02/13 08:37:11;;;;;;;;;59.00;42.00;;;;;2.95;77.33;101716.50;6278756;20;2871107;-46
2023/02/13 08:39:40;;;;;;;;;47.50;40.00;;;;;3.40;79.94;101709.47;6283941;20;2842028;-46
2023/02/13 08:42:08;;;;;;;;;43.00;37.50;;;;;3.62;75.79;101712.13;6283234;20;2871187;-47
2023/02/13 08:44:42;;;;;;;;;42.00;37.00;;;;;2.85;77.34;101710.28;6282914;20;2864977;-48
2023/02/13 08:47:12;;;;;;;;;47.00;37.33;;;;;3.38;76.82;101710.38;6309221;20;3621102;-49
2023/02/13 08:49:42;;;;;;;;;39.67;36.33;;;;;3.76;75.43;101706.81;6316128;20;2868090;-48
2023/02/13 08:52:11;;;;;;;;;46.33;37.33;;;;;3.62;73.72;101712.13;6316339;20;2858673;-47
2023/02/13 08:54:40;;;;;;;;;33.50;28.00;;;;;4.10;75.07;101712.94;6316204;20;2845242;-48
2023/02/13 08:57:08;;;;;;;;;35.00;32.00;;;;;3.92;72.90;101708.53;6286717;20;2854609;-45
2023/02/13 08:59:37;;;;;;;;;45.00;36.50;;;;;3.80;74.81;101701.50;6285229;20;2868113;-45
2023/02/13 09:02:07;;;;;;;;;44.00;39.00;;;;;3.40;75.63;101712.13;6288919;20;2853449;-44
2023/02/13 09:04:36;;;;;;;;;45.00;38.50;;;;;3.73;75.65;101707.69;6284752;20;2862906;-45
2023/02/13 09:07:05;;;;;;;;;47.00;38.50;;;;;3.61;74.71;101721.88;6285902;20;2863863;-44
2023/02/13 09:09:34;;;;;;;;;33.00;28.50;;;;;4.14;74.08;101722.69;6285643;20;2860727;-50
2023/02/13 09:12:03;;;;;;;;;43.50;37.50;;;;;4.13;73.33;101713.84;6288922;20;2859626;-49
2023/02/13 09:14:33;;;;;;;;;52.00;39.00;;;;;4.50;71.90;101715.47;6286132;20;3622185;-46
2023/02/13 09:17:03;;;;;;;;;46.33;37.33;;;;;4.71;70.15;101717.16;6315325;20;2864974;-48
2023/02/13 09:19:32;;;;;;;;;54.67;41.67;;;;;5.14;70.44;101714.28;6317404;20;3632546;-48
2023/02/13 09:22:02;;;;;;;;;42.33;36.00;;;;;4.51;72.00;101718.16;6312527;20;3625259;-52
2023/02/13 09:24:31;;;;;;;;;47.00;39.00;;;;;4.44;70.83;101716.38;6314838;20;2859818;-48
2023/02/13 09:27:00;;;;;;;;;44.33;36.00;;;;;4.94;72.00;101725.91;6282045;20;2851457;-48
2023/02/13 09:29:32;;;;;;;;;42.33;35.67;;;;;4.55;71.00;101717.22;6311097;20;2861870;-48
2023/02/13 09:32:04;;;;;;;;;54.33;43.00;;;;;4.81;70.94;101714.44;6318004;20;2880562;-49
2023/02/13 09:34:37;;;;;;;;;58.33;47.00;;;;;5.06;70.17;101723.19;6316696;20;3607575;-48
2023/02/13 09:37:05;;;;;;;;;56.00;42.50;;;;;5.34;69.43;101719.44;6316462;20;2871117;-48
2023/02/13 09:39:35;;;;;;;;;38.33;31.67;;;;;5.33;67.71;101715.91;6284658;20;3611815;-45
2023/02/13 09:42:25;;;;;;;;;54.50;40.00;;;;;5.39;69.07;101714.97;6316638;20;2875311;-48
2023/02/13 09:45:04;;;;;;;;;50.50;40.00;;;;;5.53;69.17;101712.19;6285414;20;2856528;-50
2023/02/13 09:47:42;;;;;;;;;54.50;39.00;;;;;5.32;68.63;101703.50;6278024;20;2861777;-48
2023/02/13 09:50:24;;;;;;;;;84.67;63.00;;;;;5.72;69.30;101697.84;6282265;20;3648371;-49
2023/02/13 09:52:56;;;;;;;;;47.00;40.50;;;;;5.70;67.05;101699.63;6315054;20;2836886;-48
2023/02/13 09:55:55;;;;;;;;;46.00;39.00;;;;;5.42;68.17;101705.16;6283920;20;2845154;-47
2023/02/13 09:58:49;;;;;;;;;68.67;48.00;;;;;5.86;67.58;101700.34;6282257;20;3638813;-47
2023/02/13 10:01:33;;;;;;;;;91.25;61.25;;;;;6.12;66.57;101702.81;6314108;20;3674258;-48
2023/02/13 10:04:38;;;;;;;;;52.00;38.00;;;;;5.91;67.77;101696.75;6315972;20;2878510;-48
2023/02/13 10:07:37;;;;;;;;;52.00;38.50;;;;;5.61;67.65;101695.28;6315564;20;2845161;-48
2023/02/13 10:10:51;;;;;;;;;46.67;36.67;;;;;6.07;66.56;101689.50;6283636;20;2863847;-47
2023/02/13 10:13:54;;;;;;;;;77.33;62.33;;;;;6.08;65.97;101685.03;6312456;20;3627361;-46
2023/02/13 10:16:57;;;;;;;;;41.33;38.00;;;;;6.40;65.89;101682.03;6312338;20;2861753;-48
2023/02/13 10:20:17;;;;;;;;;54.50;40.00;;;;;6.11;65.17;101685.03;6308033;20;2857651;-46
2023/02/13 10:23:11;;;;;;;;;48.00;40.00;;;;;6.19;65.18;101685.84;6282452;20;2850314;-46
2023/02/13 10:26:01;;;;;;;;;51.00;41.00;;;;;5.88;66.29;101682.56;6283445;20;2870258;-48
2023/02/13 10:31:55;;;;;;;;;48.50;39.50;;;;;5.91;65.78;101678.09;6316618;20;2859692;-48
2023/02/13 10:34:35;;;;;;;;;43.00;39.00;;;;;5.80;67.35;101674.66;6281326;20;2857602;-48
2023/02/13 10:37:17;;;;;;;;;43.33;34.33;;;;;6.13;66.50;101677.88;6282520;20;3622131;-46
2023/02/13 10:39:53;;;;;;;;;54.67;38.33;;;;;6.61;66.40;101678.22;6312705;20;2868384;-47
2023/02/13 10:42:42;;;;;;;;;51.67;39.33;;;;;6.62;66.75;101666.63;6317887;20;2863936;-50
2023/02/13 10:46:14;;;;;;;;;53.67;40.67;;;;;6.22;67.34;101656.47;6315691;20;2873272;-47
2023/02/13 10:49:29;;;;;;;;;42.50;38.00;;;;;6.94;66.82;101651.94;6316450;20;2871119;-49
2023/02/13 10:52:55;;;;;;;;;30.50;24.50;;;;;6.51;67.30;101657.88;6285498;20;2831668;-49
2023/02/13 10:56:04;;;;;;;;;50.33;39.33;;;;;6.81;66.18;101652.09;6284358;20;3621195;-48
2023/02/13 10:59:38;;;;;;;;;55.00;42.00;;;;;6.11;68.27;101634.38;6316382;20;2863862;-50
2023/02/13 11:02:31;;;;;;;;;49.50;40.50;;;;;6.72;66.98;101641.56;6283214;20;2846190;-50
2023/02/13 11:05:15;;;;;;;;;44.00;36.00;;;;;6.75;66.16;101633.50;6282678;20;2879621;-50
2023/02/13 11:07:47;;;;;;;;;52.67;39.67;;;;;6.72;67.03;101641.56;6313466;20;2861765;-48
2023/02/13 11:10:25;;;;;;;;;59.33;45.00;;;;;6.93;65.34;101640.38;6312967;20;2870216;-45
2023/02/13 11:12:56;;;;;;;;;56.00;43.00;;;;;6.31;67.07;101628.78;6311956;20;2869099;-45
2023/02/13 11:15:31;;;;;;;;;58.00;42.00;;;;;7.37;66.09;101645.91;6313280;20;3629408;-48
2023/02/13 11:18:19;;;;;;;;;57.33;41.67;;;;;7.18;66.35;101631.97;6305729;20;2871261;-51
2023/02/13 11:21:12;;;;;;;;;52.33;39.00;;;;;7.28;65.73;101630.03;6312683;20;2871146;-49
2023/02/13 11:23:52;;;;;;;;;49.67;38.00;;;;;7.30;65.19;101628.22;6311984;20;3627340;-49
2023/02/13 11:26:32;;;;;;;;;60.67;42.33;;;;;7.20;66.09;101624.81;6306815;20;3620089;-47
2023/02/13 11:29:35;;;;;;;;;55.67;46.33;;;;;6.97;66.26;101619.84;6311684;20;2869099;-48
2023/02/13 11:32:31;;;;;;;;;53.33;41.67;;;;;7.55;65.24;101613.50;6312706;20;3621079;-51
2023/02/13 11:35:35;;;;;;;;;51.50;41.00;;;;;6.97;66.32;101609.16;6311705;20;2853436;-48
2023/02/13 11:38:24;;;;;;;;;44.00;37.50;;;;;7.06;67.23;101603.69;6279374;20;2860762;-47
2023/02/13 11:41:14;;;;;;;;;57.67;43.00;;;;;7.17;67.08;101592.81;6280967;20;3623223;-48
2023/02/13 11:43:52;;;;;;;;;69.00;52.00;;;;;7.40;66.58;101587.09;6311761;20;3636732;-47
2023/02/13 11:46:49;;;;;;;;;54.50;41.00;;;;;7.36;66.14;101580.88;6309995;20;2865985;-46
2023/02/13 11:49:26;;;;;;;;;81.00;62.25;;;;;7.40;66.39;101587.09;6281314;20;3627421;-50
2023/02/13 11:52:04;;;;;;;;;47.33;39.67;;;;;7.80;65.71;101576.50;6313667;20;2871182;-47
2023/02/13 11:54:44;;;;;;;;;60.33;49.00;;;;;7.47;65.68;101583.38;6312271;20;2866941;-47
2023/02/13 11:57:36;;;;;;;;;64.50;50.50;;;;;6.99;67.60;101580.66;6313887;20;3494109;-51
2023/02/13 12:00:36;;;;;;;;;61.33;45.67;;;;;7.09;67.79;101565.34;6312377;20;2880589;-52
2023/02/13 12:03:31;;;;;;;;;54.00;43.50;;;;;7.66;66.75;101573.22;6313301;20;2859703;-50
2023/02/13 12:06:14;;;;;;;;;48.00;41.00;;;;;7.26;67.55;101566.81;6283729;20;2851477;-49
2023/02/13 12:08:48;;;;;;;;;52.67;41.00;;;;;7.62;66.67;101566.19;6283033;20;2863841;-48
2023/02/13 12:11:47;;;;;;;;;61.33;49.33;;;;;7.62;67.37;101567.06;6310194;20;3608608;-51
2023/02/13 12:14:37;;;;;;;;;55.00;44.00;;;;;7.40;66.82;101565.72;6312408;20;2858703;-49
2023/02/13 12:17:26;;;;;;;;;52.50;42.00;;;;;7.75;65.89;101564.16;6277576;20;2862778;-50
2023/02/13 12:20:01;;;;;;;;;62.33;46.33;;;;;7.76;66.19;101556.06;6280508;20;3635697;-47
2023/02/13 12:23:21;;;;;;;;;58.33;41.67;;;;;7.42;66.67;101555.84;6314867;20;2859739;-49
2023/02/13 12:26:20;;;;;;;;;59.00;44.00;;;;;7.89;65.79;101554.03;6308534;20;2868030;-47
2023/02/13 12:29:22;;;;;;;;;55.00;43.00;;;;;8.23;65.04;101547.97;6311474;20;2846131;-49